Terminal Aerodrome Forecast
Issued by NWS

Home | Current Version | Previous Version | Text Only | Print | Product List | Glossary On
Versions: 1 2 3 4 5 6 7 8 9 10 11 12 13 14 15 16
000
FTUS41 KLWX 272300
TAFMTN
TAF
KMTN 272329Z 2800/2824 28013G23KT P6SM SCT090
     FM281200 31014G21KT P6SM FEW250
     FM282200 31009KT P6SM FEW250
      AMD NOT SKED 2802/2812=

USA.gov is the U.S. government's official web portal to all federal, state and local government web resources and services.